createdAt,value
2023-01-13T06:52:40.943Z,6.88
2023-01-13T06:54:42.347Z,6.89
2023-01-13T06:56:43.760Z,6.87
2023-01-13T06:58:45.154Z,6.86
2023-01-13T07:00:51.210Z,6.84
2023-01-13T07:02:52.926Z,6.76
2023-01-13T07:04:54.354Z,6.70
2023-01-13T07:06:55.840Z,6.73
2023-01-13T07:08:57.285Z,6.73
2023-01-13T07:10:58.739Z,6.72
2023-01-13T07:13:20.249Z,6.72
2023-01-13T07:15:21.776Z,6.66
2023-01-13T07:17:25.215Z,6.59
2023-01-13T07:19:26.738Z,6.57
2023-01-13T07:21:28.167Z,6.51
2023-01-13T07:23:31.810Z,6.52
2023-01-13T07:25:33.156Z,6.49
2023-01-13T07:27:35.246Z,6.55
2023-01-13T07:29:37.418Z,6.60
2023-01-13T07:31:39.934Z,6.47
2023-01-13T07:33:41.438Z,6.49
2023-01-13T07:35:42.803Z,6.44
2023-01-13T07:37:44.236Z,6.47
2023-01-13T07:39:46.343Z,6.39
2023-01-13T07:42:06.510Z,6.44
2023-01-13T07:44:10.660Z,6.38
2023-01-13T07:46:12.058Z,6.39
2023-01-13T07:48:13.705Z,6.48
2023-01-13T07:50:15.117Z,6.46
2023-01-13T07:52:16.489Z,6.53
2023-01-13T07:54:19.311Z,6.54
2023-01-13T07:56:21.124Z,6.62
2023-01-13T07:58:22.839Z,6.51
2023-01-13T08:00:24.256Z,6.46
2023-01-13T08:02:25.802Z,6.43
2023-01-13T08:04:27.242Z,6.48
2023-01-13T08:06:28.818Z,6.60
2023-01-13T08:08:30.246Z,6.70
2023-01-13T08:10:31.630Z,6.75
2023-01-13T08:12:55.702Z,6.78
2023-01-13T08:14:58.691Z,6.78
2023-01-13T08:17:00.122Z,6.82
2023-01-13T08:19:01.592Z,6.82
2023-01-13T08:21:06.064Z,6.85
2023-01-13T08:23:07.690Z,6.88
2023-01-13T08:25:09.355Z,6.92
2023-01-13T08:27:10.791Z,7.02
2023-01-13T08:29:14.743Z,7.02
2023-01-13T08:31:17.319Z,7.02
2023-01-13T08:33:19.754Z,7.04
2023-01-13T08:35:22.125Z,7.06
2023-01-13T08:37:23.488Z,7.08
2023-01-13T08:39:25.461Z,7.10
2023-01-13T08:41:45.174Z,7.07
2023-01-13T08:43:46.523Z,7.08
2023-01-13T08:45:56.647Z,7.10
2023-01-13T08:47:58.823Z,7.09
2023-01-13T08:50:00.202Z,7.10
2023-01-13T08:52:01.746Z,7.12
2023-01-13T08:54:03.254Z,7.09
2023-01-13T08:56:11.606Z,7.19
2023-01-13T08:58:16.418Z,7.21
2023-01-13T09:00:18.532Z,7.18
2023-01-13T09:02:22.297Z,7.22
2023-01-13T09:04:27.492Z,7.21
2023-01-13T09:06:28.896Z,7.20
2023-01-13T09:08:30.412Z,7.21
2023-01-13T09:10:32.324Z,7.21
2023-01-13T09:12:52.287Z,7.23
2023-01-13T09:14:53.669Z,7.25
2023-01-13T09:16:55.155Z,7.29
2023-01-13T09:18:56.527Z,7.31
2023-01-13T09:20:59.013Z,7.33
2023-01-13T09:23:00.609Z,7.31
2023-01-13T09:25:02.046Z,7.34
2023-01-13T09:27:03.611Z,7.41
2023-01-13T09:29:05.431Z,7.41
2023-01-13T09:31:06.847Z,7.45
2023-01-13T09:33:26.854Z,7.43
2023-01-13T09:35:28.238Z,7.43
2023-01-13T09:37:33.996Z,7.46
2023-01-13T09:39:36.413Z,7.50
2023-01-13T09:42:01.404Z,7.55
2023-01-13T09:44:04.855Z,7.55
2023-01-13T09:46:44.027Z,7.60
2023-01-13T09:48:54.759Z,7.66
2023-01-13T09:51:14.678Z,7.71
2023-01-13T09:53:50.936Z,7.71
2023-01-13T09:55:52.943Z,7.73
2023-01-13T09:57:54.773Z,7.74
2023-01-13T09:59:57.797Z,7.73
2023-01-13T10:02:27.776Z,7.79
2023-01-13T10:04:29.225Z,7.78
2023-01-13T10:06:38.712Z,7.83
2023-01-13T10:08:44.739Z,7.86
2023-01-13T10:10:48.904Z,7.84
2023-01-13T10:13:09.081Z,7.84
2023-01-13T10:15:20.419Z,7.76
2023-01-13T10:17:28.476Z,7.83
2023-01-13T10:19:37.849Z,7.80
2023-01-13T10:21:45.081Z,7.85
2023-01-13T10:23:52.346Z,7.82
2023-01-13T10:26:24.074Z,7.85
2023-01-13T10:28:26.409Z,7.83
2023-01-13T10:30:34.001Z,7.90
2023-01-13T10:32:35.371Z,7.91
2023-01-13T10:34:51.905Z,7.93
2023-01-13T10:37:08.428Z,7.99
2023-01-13T10:39:15.901Z,7.91
2023-01-13T10:41:19.909Z,7.98
2023-01-13T10:43:21.851Z,8.01
2023-01-13T10:45:26.136Z,7.99
2023-01-13T10:47:30.261Z,7.99
2023-01-13T10:49:38.481Z,8.03
2023-01-13T10:51:39.824Z,8.10
2023-01-13T10:53:54.078Z,8.13
2023-01-13T10:56:04.296Z,8.20
2023-01-13T10:58:19.710Z,8.28
2023-01-13T11:00:33.447Z,8.22
2023-01-13T11:02:35.954Z,8.32
2023-01-13T11:04:40.639Z,8.27
2023-01-13T11:06:46.477Z,8.44
2023-01-13T11:08:50.226Z,8.43
2023-01-13T11:10:56.497Z,8.45
2023-01-13T11:13:08.407Z,8.49
2023-01-13T11:15:15.311Z,8.56
2023-01-13T11:17:16.648Z,8.74
2023-01-13T11:19:21.518Z,8.65
2023-01-13T11:21:27.850Z,8.71
2023-01-13T11:23:37.304Z,8.67
2023-01-13T11:25:42.978Z,8.72
2023-01-13T11:27:47.861Z,8.71
2023-01-13T11:30:09.927Z,8.74
2023-01-13T11:32:23.095Z,8.62
2023-01-13T11:34:36.711Z,8.65
2023-01-13T11:36:43.678Z,8.61
2023-01-13T11:38:47.822Z,8.58
2023-01-13T11:40:50.703Z,8.56
2023-01-13T11:42:59.067Z,8.47
2023-01-13T11:45:16.532Z,8.37
2023-01-13T11:47:23.519Z,8.15
2023-01-13T11:49:30.625Z,7.98
2023-01-13T11:51:35.016Z,8.10
2023-01-13T11:54:12.191Z,7.96
2023-01-13T11:56:32.371Z,7.90
2023-01-13T11:58:50.952Z,7.98
2023-01-13T12:01:08.648Z,7.89
2023-01-13T12:03:42.740Z,7.63
2023-01-13T12:05:58.629Z,7.73
2023-01-13T12:08:26.537Z,7.82
2023-01-13T12:10:43.081Z,7.79
2023-01-13T12:13:14.890Z,7.88
2023-01-13T12:15:22.416Z,8.00
2023-01-13T12:17:38.287Z,7.98
2023-01-13T12:19:45.078Z,8.07
2023-01-13T12:21:55.201Z,8.07
2023-01-13T12:24:05.755Z,8.08
2023-01-13T12:26:11.762Z,8.06
2023-01-13T12:28:42.945Z,8.02
2023-01-13T12:31:14.155Z,7.98
2023-01-13T12:33:46.794Z,8.03
2023-01-13T12:36:04.809Z,8.02
2023-01-13T12:38:37.411Z,7.95
2023-01-13T12:40:47.920Z,7.92
2023-01-13T12:43:26.290Z,7.97
2023-01-13T12:45:32.882Z,7.82
2023-01-13T12:47:54.015Z,7.80
2023-01-13T12:50:24.691Z,7.74
2023-01-13T12:52:26.381Z,7.68
2023-01-13T12:54:30.510Z,7.69
2023-01-13T12:56:45.830Z,7.59
2023-01-13T12:58:47.267Z,7.60
2023-01-13T13:01:00.217Z,7.69
2023-01-13T13:03:09.776Z,7.58
2023-01-13T13:05:14.685Z,7.61
2023-01-13T13:07:23.508Z,7.54
2023-01-13T13:09:33.037Z,7.54
2023-01-13T13:11:56.878Z,7.45
2023-01-13T13:14:03.406Z,7.34
2023-01-13T13:16:26.770Z,7.28
2023-01-13T13:18:28.763Z,7.23
2023-01-13T13:21:06.878Z,7.29
2023-01-13T13:23:38.113Z,7.35
2023-01-13T13:25:59.984Z,7.46
2023-01-13T13:28:17.961Z,7.33
2023-01-13T13:30:48.543Z,7.35
2023-01-13T13:32:59.343Z,7.35
2023-01-13T13:35:26.180Z,7.27
2023-01-13T13:38:05.094Z,7.31
2023-01-13T13:40:28.839Z,7.36
2023-01-13T13:42:59.669Z,7.35
2023-01-13T13:45:21.705Z,7.31
2023-01-13T13:47:23.221Z,7.40
2023-01-13T13:49:38.622Z,7.52
2023-01-13T13:51:46.383Z,7.53
2023-01-13T13:53:48.153Z,7.54
2023-01-13T13:55:55.996Z,7.49
2023-01-13T13:57:59.054Z,7.48
2023-01-13T14:00:01.060Z,7.48
2023-01-13T14:02:03.984Z,7.32
2023-01-13T14:04:19.961Z,7.39
2023-01-13T14:06:24.395Z,7.34
2023-01-13T14:08:28.203Z,7.31
2023-01-13T14:10:35.704Z,7.37
2023-01-13T14:12:38.256Z,7.39
2023-01-13T14:14:43.984Z,7.52
2023-01-13T14:16:46.431Z,7.46
2023-01-13T14:18:48.556Z,7.39
2023-01-13T14:21:03.297Z,7.42
2023-01-13T14:23:05.792Z,7.35
2023-01-13T14:25:49.704Z,7.36
2023-01-13T14:27:51.131Z,7.34
2023-01-13T14:29:54.428Z,7.26
2023-01-13T14:31:55.975Z,7.27
2023-01-13T14:34:01.056Z,7.26
2023-01-13T14:36:11.345Z,7.25
2023-01-13T14:38:16.348Z,7.27
2023-01-13T14:40:33.092Z,7.21
2023-01-13T14:42:35.405Z,7.21
2023-01-13T14:44:37.066Z,7.13
2023-01-13T14:46:44.443Z,7.13
2023-01-13T14:48:47.482Z,7.08
2023-01-13T14:50:49.007Z,7.06
2023-01-13T14:52:55.562Z,7.11
2023-01-13T14:55:02.719Z,7.12
2023-01-13T14:57:27.627Z,7.09
2023-01-13T14:59:51.796Z,7.10
2023-01-13T15:01:54.677Z,7.02
2023-01-13T15:04:17.201Z,7.06
2023-01-13T15:06:24.243Z,7.03
2023-01-13T15:08:27.951Z,7.02
2023-01-13T15:10:32.437Z,6.99
2023-01-13T15:12:39.607Z,7.00
2023-01-13T15:14:41.001Z,7.02
2023-01-13T15:16:42.424Z,7.06
2023-01-13T15:18:44.133Z,6.99
2023-01-13T15:20:46.156Z,6.98
2023-01-13T15:22:48.629Z,6.97
2023-01-13T15:24:50.094Z,6.95
2023-01-13T15:26:52.088Z,6.94
2023-01-13T15:28:56.196Z,6.93
2023-01-13T15:31:01.701Z,6.88
2023-01-13T15:33:03.345Z,6.85
2023-01-13T15:35:05.236Z,6.83
2023-01-13T15:37:09.158Z,6.75
2023-01-13T15:39:12.954Z,6.70
2023-01-13T15:43:58.405Z,6.65
2023-01-13T15:46:19.655Z,6.72
2023-01-13T15:48:22.287Z,6.64
2023-01-13T15:50:23.680Z,6.59
2023-01-13T15:52:27.231Z,6.57
2023-01-13T15:54:28.698Z,6.59
2023-01-13T15:56:30.176Z,6.53
2023-01-13T15:58:31.770Z,6.52
2023-01-13T16:00:33.498Z,6.56
2023-01-13T16:02:34.914Z,6.48
2023-01-13T16:04:36.314Z,6.54
2023-01-13T16:06:37.792Z,6.50
2023-01-13T16:08:39.238Z,6.47
2023-01-13T16:10:40.752Z,6.43
2023-01-13T16:12:42.368Z,6.50
2023-01-13T16:14:43.769Z,6.49
2023-01-13T16:16:45.197Z,6.50
2023-01-13T16:18:46.809Z,6.51
2023-01-13T16:20:52.682Z,6.50
2023-01-13T16:22:54.092Z,6.47
2023-01-13T16:24:55.905Z,6.44
2023-01-13T16:26:57.291Z,6.48
2023-01-13T16:28:59.028Z,6.50
2023-01-13T16:31:00.475Z,6.51
2023-01-13T16:33:02.640Z,6.47
2023-01-13T16:35:04.243Z,6.40
2023-01-13T16:37:24.381Z,6.41
2023-01-13T16:39:26.613Z,6.45
2023-01-13T16:41:28.036Z,6.40
2023-01-13T16:43:29.474Z,6.40
2023-01-13T16:45:31.620Z,6.37
2023-01-13T16:47:33.009Z,6.40
2023-01-13T16:49:34.519Z,6.42
2023-01-13T16:51:35.935Z,6.43
2023-01-13T16:53:37.298Z,6.43
2023-01-13T16:55:40.393Z,6.43
2023-01-13T16:57:42.098Z,6.40
2023-01-13T16:59:43.488Z,6.47
2023-01-13T17:01:45.143Z,6.46
2023-01-13T17:03:51.347Z,6.42
2023-01-13T17:05:52.814Z,6.50
2023-01-13T17:07:54.616Z,6.50
2023-01-13T17:09:56.039Z,6.52
2023-01-13T17:11:57.745Z,6.48
2023-01-13T17:13:59.415Z,6.42
2023-01-13T17:16:00.775Z,6.43
2023-01-13T17:18:02.810Z,6.37
2023-01-13T17:20:04.930Z,6.42
2023-01-13T17:22:06.329Z,6.41
2023-01-13T17:24:09.627Z,6.41
2023-01-13T17:26:28.913Z,6.41
2023-01-13T17:28:30.340Z,6.43
2023-01-13T17:30:31.733Z,6.42
2023-01-13T17:32:33.175Z,6.43
2023-01-13T17:34:34.551Z,6.49
2023-01-13T17:36:35.963Z,6.44
2023-01-13T17:38:37.425Z,6.43
2023-01-13T17:40:38.885Z,6.46
2023-01-13T17:42:40.260Z,6.44
2023-01-13T17:44:42.075Z,6.43
2023-01-13T17:46:44.375Z,6.44
2023-01-13T17:48:46.845Z,6.42
2023-01-13T17:50:49.303Z,6.44
2023-01-13T17:52:50.651Z,6.43
2023-01-13T17:54:52.772Z,6.43
2023-01-13T17:56:56.509Z,6.38
2023-01-13T17:58:58.552Z,6.32
2023-01-13T18:00:59.991Z,6.36
2023-01-13T18:03:01.445Z,6.38
2023-01-13T18:05:03.174Z,6.38
2023-01-13T18:07:06.191Z,6.42
2023-01-13T18:09:07.791Z,6.38
2023-01-13T18:11:09.594Z,6.33
2023-01-13T18:13:11.004Z,6.41
2023-01-13T18:15:12.491Z,6.37
2023-01-13T18:17:13.936Z,6.37
2023-01-13T18:19:34.281Z,6.37
2023-01-13T18:21:54.806Z,6.46
2023-01-13T18:24:14.702Z,6.37
2023-01-13T18:26:39.173Z,6.34
2023-01-13T18:28:40.723Z,6.42
2023-01-13T18:30:42.140Z,6.42
2023-01-13T18:32:43.609Z,6.40
2023-01-13T18:34:45.339Z,6.39
2023-01-13T18:36:47.120Z,6.38
2023-01-13T18:38:50.396Z,6.34
2023-01-13T18:40:51.878Z,6.39
2023-01-13T18:42:56.166Z,6.38
2023-01-13T18:44:58.045Z,6.39
2023-01-13T18:46:59.414Z,6.35
2023-01-13T18:49:00.841Z,6.37
2023-01-13T18:51:02.215Z,6.35
2023-01-13T18:53:03.847Z,6.51
2023-01-13T18:55:05.560Z,6.52
2023-01-13T18:57:07.272Z,6.46
2023-01-13T18:59:08.676Z,6.48
2023-01-13T19:01:10.601Z,6.47
2023-01-13T19:03:12.836Z,6.42
2023-01-13T19:05:14.420Z,6.43
2023-01-13T19:07:22.366Z,6.46
2023-01-13T19:09:26.365Z,6.47
2023-01-13T19:11:30.461Z,6.50
2023-01-13T19:13:32.140Z,6.50
2023-01-13T19:15:36.345Z,6.51
2023-01-13T19:17:37.996Z,6.53
2023-01-13T19:19:44.631Z,6.57
2023-01-13T19:21:46.278Z,6.56
2023-01-13T19:23:47.691Z,6.59
2023-01-13T19:25:49.038Z,6.58
2023-01-13T19:27:50.471Z,6.62
2023-01-13T19:29:53.464Z,6.61
2023-01-13T19:31:55.815Z,6.57
2023-01-13T19:33:57.791Z,6.61
2023-01-13T19:35:59.706Z,6.64
2023-01-13T19:38:01.127Z,6.65
2023-01-13T19:40:09.003Z,6.69
2023-01-13T19:42:30.461Z,6.69
2023-01-13T19:44:50.286Z,6.73
2023-01-13T19:46:51.662Z,6.65
2023-01-13T19:48:53.034Z,6.74
2023-01-13T19:50:54.485Z,6.72
2023-01-13T19:52:56.030Z,6.68
2023-01-13T19:54:57.666Z,6.69
2023-01-13T19:56:59.033Z,6.64
2023-01-13T19:59:00.478Z,6.74
2023-01-13T20:01:09.628Z,6.74
2023-01-13T20:03:11.110Z,6.74
2023-01-13T20:05:17.861Z,6.76
2023-01-13T20:07:19.287Z,6.81
2023-01-13T20:09:20.637Z,6.78
2023-01-13T20:11:22.158Z,6.78
2023-01-13T20:13:23.537Z,6.79
2023-01-13T20:15:24.940Z,6.83
2023-01-13T20:17:26.351Z,6.80
2023-01-13T20:19:27.796Z,6.82
2023-01-13T20:21:29.166Z,6.77
2023-01-13T20:23:31.159Z,6.83
2023-01-13T20:25:32.586Z,6.90
2023-01-13T20:27:34.063Z,6.86
2023-01-13T20:29:35.701Z,6.83
2023-01-13T20:31:37.582Z,6.78
2023-01-13T20:33:39.576Z,6.77
2023-01-13T20:35:40.978Z,6.83
2023-01-13T20:37:42.788Z,6.78
2023-01-13T20:39:45.915Z,6.76
2023-01-13T20:42:13.648Z,6.73
2023-01-13T20:44:15.335Z,6.72
2023-01-13T20:46:16.853Z,6.74
2023-01-13T20:48:18.240Z,6.75
2023-01-13T20:50:20.011Z,6.67
2023-01-13T20:52:21.656Z,6.72
2023-01-13T20:54:23.115Z,6.74
2023-01-13T20:56:24.964Z,6.74
2023-01-13T20:58:26.355Z,6.76
2023-01-13T21:00:28.539Z,6.77
2023-01-13T21:02:30.336Z,6.82
2023-01-13T21:04:31.735Z,6.81
2023-01-13T21:06:33.573Z,6.75
2023-01-13T21:08:35.202Z,6.77
2023-01-13T21:10:36.640Z,6.75
2023-01-13T21:12:56.685Z,6.72
2023-01-13T21:15:16.482Z,6.77
2023-01-13T21:17:36.204Z,6.81
2023-01-13T21:19:37.564Z,6.77
2023-01-13T21:21:39.135Z,6.74
2023-01-13T21:23:42.352Z,6.83
2023-01-13T21:25:43.695Z,6.80
2023-01-13T21:27:45.254Z,6.86
2023-01-13T21:29:46.653Z,6.77
2023-01-13T21:31:48.771Z,6.76
2023-01-13T21:33:57.773Z,6.72
2023-01-13T21:36:07.961Z,6.71
2023-01-13T21:38:10.993Z,6.75
2023-01-13T21:40:13.997Z,6.72
2023-01-13T21:42:34.805Z,6.70
2023-01-13T21:44:54.538Z,6.60
2023-01-13T21:47:14.245Z,6.61
2023-01-13T21:49:15.644Z,6.74
2023-01-13T21:51:17.036Z,6.67
2023-01-13T21:53:18.549Z,6.61
2023-01-13T21:55:25.220Z,6.57
2023-01-13T21:57:28.000Z,6.59
2023-01-13T21:59:29.383Z,6.65
2023-01-13T22:01:30.840Z,6.73
2023-01-13T22:03:51.354Z,6.69
2023-01-13T22:05:55.955Z,6.68
2023-01-13T22:07:57.701Z,6.71
2023-01-13T22:09:59.217Z,6.75
2023-01-13T22:12:01.433Z,6.67
2023-01-13T22:14:06.452Z,6.61
2023-01-13T22:16:09.129Z,6.64
2023-01-13T22:18:10.538Z,6.61
2023-01-13T22:20:13.041Z,6.63
2023-01-13T22:22:16.377Z,6.70
2023-01-13T22:24:17.739Z,6.69
2023-01-13T22:26:19.196Z,6.75
2023-01-13T22:28:25.087Z,6.72
2023-01-13T22:30:31.699Z,6.65
2023-01-13T22:32:36.318Z,6.62
2023-01-13T22:34:37.926Z,6.59
2023-01-13T22:36:39.282Z,6.54
2023-01-13T22:38:40.718Z,6.51
2023-01-13T22:40:42.178Z,6.47
2023-01-13T22:42:43.522Z,6.52
2023-01-13T22:44:44.928Z,6.53
2023-01-13T22:46:46.373Z,6.53
2023-01-13T22:48:48.303Z,6.55
2023-01-13T22:50:49.741Z,6.61
2023-01-13T22:52:51.201Z,6.63
2023-01-13T22:54:52.550Z,6.64
2023-01-13T22:56:53.932Z,6.60
2023-01-13T22:58:57.457Z,6.58
2023-01-13T23:01:14.698Z,6.59
2023-01-13T23:03:16.334Z,6.59
2023-01-13T23:05:17.718Z,6.58
2023-01-13T23:07:19.116Z,6.58
2023-01-13T23:09:20.721Z,6.62
2023-01-13T23:11:24.713Z,6.58
2023-01-13T23:13:26.141Z,6.61
2023-01-13T23:15:27.596Z,6.64
2023-01-13T23:17:28.982Z,6.64
2023-01-13T23:19:30.411Z,6.69
2023-01-13T23:21:36.669Z,6.64
2023-01-13T23:23:38.616Z,6.67
2023-01-13T23:25:39.996Z,6.65
2023-01-13T23:27:41.375Z,6.65
2023-01-13T23:29:42.736Z,6.63
2023-01-13T23:31:44.211Z,6.64
2023-01-13T23:33:45.859Z,6.70
2023-01-13T23:35:58.506Z,6.67
2023-01-13T23:37:59.865Z,6.66
2023-01-13T23:40:01.302Z,6.70
2023-01-13T23:42:02.714Z,6.69
2023-01-13T23:44:04.220Z,6.65
2023-01-13T23:46:08.585Z,6.67
2023-01-13T23:48:10.105Z,6.70
2023-01-13T23:50:11.534Z,6.70
2023-01-13T23:52:12.929Z,6.72
2023-01-13T23:54:14.334Z,6.74
2023-01-13T23:56:21.776Z,6.79
2023-01-13T23:58:23.413Z,6.79
